sensor_id;sensor_type;location;lat;lon;timestamp;pressure;altitude;pressure_sealevel;temperature;humidity
52949;BME280;38812;50.942;3.644;2023-03-24T00:00:50;99729.53;;;12.31;100.00
52949;BME280;38812;50.942;3.644;2023-03-24T00:03:16;99718.22;;;12.29;100.00
52949;BME280;38812;50.942;3.644;2023-03-24T00:05:41;99713.16;;;12.25;100.00
52949;BME280;38812;50.942;3.644;2023-03-24T00:08:08;99716.38;;;12.31;100.00
52949;BME280;38812;50.942;3.644;2023-03-24T00:10:34;99703.22;;;12.31;100.00
52949;BME280;38812;50.942;3.644;2023-03-24T00:13:01;99704.91;;;12.32;100.00
52949;BME280;38812;50.942;3.644;2023-03-24T00:15:27;99701.44;;;12.32;100.00
52949;BME280;38812;50.942;3.644;2023-03-24T00:17:53;99700.34;;;12.36;100.00
52949;BME280;38812;50.942;3.644;2023-03-24T00:20:22;99710.81;;;12.38;100.00
52949;BME280;38812;50.942;3.644;2023-03-24T00:22:53;99699.56;;;12.34;100.00
52949;BME280;38812;50.942;3.644;2023-03-24T00:25:25;99695.84;;;12.38;100.00
52949;BME280;38812;50.942;3.644;2023-03-24T00:27:58;99705.31;;;12.42;100.00
52949;BME280;38812;50.942;3.644;2023-03-24T00:30:24;99693.94;;;12.42;100.00
52949;BME280;38812;50.942;3.644;2023-03-24T00:32:50;99700.19;;;12.39;100.00
52949;BME280;38812;50.942;3.644;2023-03-24T00:35:16;99694.72;;;12.44;100.00
52949;BME280;38812;50.942;3.644;2023-03-24T00:37:42;99694.84;;;12.41;100.00
52949;BME280;38812;50.942;3.644;2023-03-24T00:40:14;99692.94;;;12.44;100.00
52949;BME280;38812;50.942;3.644;2023-03-24T00:42:41;99701.69;;;12.45;100.00
52949;BME280;38812;50.942;3.644;2023-03-24T00:45:12;99700.84;;;12.44;100.00
52949;BME280;38812;50.942;3.644;2023-03-24T00:47:37;99704.25;;;12.46;100.00
52949;BME280;38812;50.942;3.644;2023-03-24T00:50:05;99723.50;;;12.48;100.00
52949;BME280;38812;50.942;3.644;2023-03-24T00:52:31;99711.25;;;12.47;100.00
52949;BME280;38812;50.942;3.644;2023-03-24T00:54:59;99711.66;;;12.38;100.00
52949;BME280;38812;50.942;3.644;2023-03-24T00:57:27;99719.94;;;12.30;100.00
52949;BME280;38812;50.942;3.644;2023-03-24T00:59:54;99731.06;;;12.17;100.00
52949;BME280;38812;50.942;3.644;2023-03-24T01:02:22;99728.81;;;12.09;100.00
52949;BME280;38812;50.942;3.644;2023-03-24T01:04:56;99763.59;;;12.16;100.00
52949;BME280;38812;50.942;3.644;2023-03-24T01:07:23;99773.50;;;12.11;100.00
52949;BME280;38812;50.942;3.644;2023-03-24T01:09:49;99786.91;;;12.05;100.00
52949;BME280;38812;50.942;3.644;2023-03-24T01:12:33;99811.28;;;11.89;100.00
52949;BME280;38812;50.942;3.644;2023-03-24T01:15:04;99818.63;;;11.81;100.00
52949;BME280;38812;50.942;3.644;2023-03-24T01:17:31;99817.72;;;11.60;100.00
52949;BME280;38812;50.942;3.644;2023-03-24T01:19:56;99828.16;;;11.42;100.00
52949;BME280;38812;50.942;3.644;2023-03-24T01:22:27;99832.31;;;11.25;100.00
52949;BME280;38812;50.942;3.644;2023-03-24T01:24:53;99840.56;;;11.16;100.00
52949;BME280;38812;50.942;3.644;2023-03-24T01:27:19;99851.19;;;11.13;100.00
52949;BME280;38812;50.942;3.644;2023-03-24T01:29:44;99845.84;;;10.93;100.00
52949;BME280;38812;50.942;3.644;2023-03-24T01:32:10;99850.53;;;10.85;100.00
52949;BME280;38812;50.942;3.644;2023-03-24T01:34:35;99851.59;;;10.81;100.00
52949;BME280;38812;50.942;3.644;2023-03-24T01:37:02;99857.44;;;10.64;100.00
52949;BME280;38812;50.942;3.644;2023-03-24T01:39:28;99877.53;;;10.65;100.00
52949;BME280;38812;50.942;3.644;2023-03-24T01:41:54;99885.63;;;10.60;100.00
52949;BME280;38812;50.942;3.644;2023-03-24T01:44:24;99878.06;;;10.51;100.00
52949;BME280;38812;50.942;3.644;2023-03-24T01:46:51;99882.50;;;10.49;100.00
52949;BME280;38812;50.942;3.644;2023-03-24T01:49:17;99876.09;;;10.33;100.00
52949;BME280;38812;50.942;3.644;2023-03-24T01:51:47;99879.94;;;10.23;100.00
52949;BME280;38812;50.942;3.644;2023-03-24T01:54:20;99890.44;;;10.23;100.00
52949;BME280;38812;50.942;3.644;2023-03-24T01:56:55;99879.47;;;10.10;100.00
52949;BME280;38812;50.942;3.644;2023-03-24T01:59:24;99896.94;;;10.11;100.00
52949;BME280;38812;50.942;3.644;2023-03-24T02:01:52;99904.88;;;10.10;100.00
52949;BME280;38812;50.942;3.644;2023-03-24T02:04:33;99911.13;;;10.06;100.00
52949;BME280;38812;50.942;3.644;2023-03-24T02:07:10;99917.22;;;10.06;100.00
52949;BME280;38812;50.942;3.644;2023-03-24T02:09:36;99919.72;;;10.11;100.00
52949;BME280;38812;50.942;3.644;2023-03-24T02:12:02;99916.28;;;10.09;100.00
52949;BME280;38812;50.942;3.644;2023-03-24T02:14:28;99916.94;;;10.15;100.00
52949;BME280;38812;50.942;3.644;2023-03-24T02:23:02;99929.69;;;10.00;100.00
52949;BME280;38812;50.942;3.644;2023-03-24T02:26:11;99924.63;;;9.95;100.00
52949;BME280;38812;50.942;3.644;2023-03-24T02:40:06;99943.59;;;9.75;100.00
52949;BME280;38812;50.942;3.644;2023-03-24T02:43:10;99933.72;;;9.83;100.00
52949;BME280;38812;50.942;3.644;2023-03-24T02:45:59;99946.03;;;9.81;100.00
52949;BME280;38812;50.942;3.644;2023-03-24T02:51:22;99965.03;;;9.89;100.00
52949;BME280;38812;50.942;3.644;2023-03-24T02:59:19;99973.88;;;9.85;100.00
52949;BME280;38812;50.942;3.644;2023-03-24T03:02:02;99970.28;;;9.89;100.00
52949;BME280;38812;50.942;3.644;2023-03-24T03:04:33;99971.31;;;9.84;100.00
52949;BME280;38812;50.942;3.644;2023-03-24T03:07:04;99973.03;;;9.85;100.00
52949;BME280;38812;50.942;3.644;2023-03-24T03:09:40;99972.16;;;9.84;100.00
52949;BME280;38812;50.942;3.644;2023-03-24T03:12:08;99984.38;;;9.85;100.00
52949;BME280;38812;50.942;3.644;2023-03-24T03:14:47;99966.06;;;9.84;100.00
52949;BME280;38812;50.942;3.644;2023-03-24T03:17:19;99980.56;;;9.95;100.00
52949;BME280;38812;50.942;3.644;2023-03-24T03:19:53;99979.94;;;9.87;100.00
52949;BME280;38812;50.942;3.644;2023-03-24T03:22:25;99983.47;;;9.86;100.00
52949;BME280;38812;50.942;3.644;2023-03-24T03:24:55;99981.75;;;9.85;100.00
52949;BME280;38812;50.942;3.644;2023-03-24T03:27:27;99982.84;;;9.78;100.00
52949;BME280;38812;50.942;3.644;2023-03-24T03:30:02;99989.34;;;9.67;100.00
52949;BME280;38812;50.942;3.644;2023-03-24T03:32:32;99999.66;;;9.73;100.00
52949;BME280;38812;50.942;3.644;2023-03-24T03:40:48;100008.47;;;9.70;100.00
52949;BME280;38812;50.942;3.644;2023-03-24T03:43:15;100013.78;;;9.69;100.00
52949;BME280;38812;50.942;3.644;2023-03-24T03:45:40;100012.00;;;9.69;100.00
52949;BME280;38812;50.942;3.644;2023-03-24T03:48:06;100006.94;;;9.63;100.00
52949;BME280;38812;50.942;3.644;2023-03-24T03:50:32;100016.34;;;9.70;100.00
52949;BME280;38812;50.942;3.644;2023-03-24T03:52:58;100004.13;;;9.69;100.00
52949;BME280;38812;50.942;3.644;2023-03-24T03:55:25;100025.06;;;9.71;100.00
52949;BME280;38812;50.942;3.644;2023-03-24T03:57:52;100025.13;;;9.69;100.00
52949;BME280;38812;50.942;3.644;2023-03-24T04:00:19;100018.16;;;9.68;100.00
52949;BME280;38812;50.942;3.644;2023-03-24T04:03:17;100028.34;;;9.77;100.00
52949;BME280;38812;50.942;3.644;2023-03-24T04:06:04;100039.00;;;9.73;100.00
52949;BME280;38812;50.942;3.644;2023-03-24T04:08:55;100043.47;;;9.69;100.00
52949;BME280;38812;50.942;3.644;2023-03-24T04:12:00;100044.38;;;9.68;100.00
52949;BME280;38812;50.942;3.644;2023-03-24T04:25:10;100055.13;;;9.59;100.00
52949;BME280;38812;50.942;3.644;2023-03-24T04:32:58;100061.00;;;9.38;100.00
52949;BME280;38812;50.942;3.644;2023-03-24T04:35:30;100064.81;;;9.27;100.00
52949;BME280;38812;50.942;3.644;2023-03-24T04:38:07;100067.75;;;9.15;100.00
52949;BME280;38812;50.942;3.644;2023-03-24T04:40:36;100075.97;;;9.03;100.00
52949;BME280;38812;50.942;3.644;2023-03-24T04:43:06;100063.16;;;8.91;100.00
52949;BME280;38812;50.942;3.644;2023-03-24T04:45:33;100064.19;;;8.87;100.00
52949;BME280;38812;50.942;3.644;2023-03-24T04:48:02;100071.94;;;8.90;100.00
52949;BME280;38812;50.942;3.644;2023-03-24T04:50:39;100073.72;;;8.88;100.00
52949;BME280;38812;50.942;3.644;2023-03-24T04:53:07;100087.50;;;8.96;100.00
52949;BME280;38812;50.942;3.644;2023-03-24T04:58:12;100079.72;;;8.93;100.00
52949;BME280;38812;50.942;3.644;2023-03-24T05:00:37;100069.41;;;8.87;100.00
52949;BME280;38812;50.942;3.644;2023-03-24T05:03:03;100085.66;;;9.00;100.00
52949;BME280;38812;50.942;3.644;2023-03-24T05:05:28;100083.94;;;8.99;100.00
52949;BME280;38812;50.942;3.644;2023-03-24T05:07:54;100088.09;;;9.07;100.00
52949;BME280;38812;50.942;3.644;2023-03-24T05:10:21;100091.59;;;9.06;100.00
52949;BME280;38812;50.942;3.644;2023-03-24T05:12:47;100084.56;;;9.08;100.00
52949;BME280;38812;50.942;3.644;2023-03-24T05:15:12;100089.69;;;9.11;100.00
52949;BME280;38812;50.942;3.644;2023-03-24T05:17:38;100087.81;;;9.16;100.00
52949;BME280;38812;50.942;3.644;2023-03-24T05:20:04;100094.53;;;9.26;100.00
52949;BME280;38812;50.942;3.644;2023-03-24T05:22:35;100099.00;;;9.23;100.00
52949;BME280;38812;50.942;3.644;2023-03-24T05:25:00;100093.88;;;9.18;100.00
52949;BME280;38812;50.942;3.644;2023-03-24T05:27:26;100098.63;;;9.04;100.00
52949;BME280;38812;50.942;3.644;2023-03-24T05:29:51;100105.72;;;9.01;100.00
52949;BME280;38812;50.942;3.644;2023-03-24T05:32:17;100108.41;;;8.98;100.00
52949;BME280;38812;50.942;3.644;2023-03-24T05:34:42;100100.59;;;8.96;100.00
52949;BME280;38812;50.942;3.644;2023-03-24T05:37:07;100115.03;;;9.11;100.00
52949;BME280;38812;50.942;3.644;2023-03-24T05:39:36;100101.00;;;9.13;100.00
52949;BME280;38812;50.942;3.644;2023-03-24T05:42:01;100094.84;;;9.14;100.00
52949;BME280;38812;50.942;3.644;2023-03-24T05:44:27;100097.25;;;9.23;100.00
52949;BME280;38812;50.942;3.644;2023-03-24T05:46:52;100108.34;;;9.32;100.00
52949;BME280;38812;50.942;3.644;2023-03-24T05:49:18;100108.31;;;9.33;100.00
52949;BME280;38812;50.942;3.644;2023-03-24T05:51:43;100111.72;;;9.37;100.00
52949;BME280;38812;50.942;3.644;2023-03-24T05:54:08;100115.06;;;9.42;100.00
52949;BME280;38812;50.942;3.644;2023-03-24T05:56:34;100123.69;;;9.47;100.00
52949;BME280;38812;50.942;3.644;2023-03-24T05:58:59;100117.69;;;9.42;100.00
52949;BME280;38812;50.942;3.644;2023-03-24T06:01:25;100126.34;;;9.45;100.00
52949;BME280;38812;50.942;3.644;2023-03-24T06:03:53;100129.09;;;9.41;100.00
52949;BME280;38812;50.942;3.644;2023-03-24T06:06:18;100129.91;;;9.43;100.00
52949;BME280;38812;50.942;3.644;2023-03-24T06:08:43;100123.84;;;9.41;100.00
52949;BME280;38812;50.942;3.644;2023-03-24T06:11:10;100138.59;;;9.45;100.00
52949;BME280;38812;50.942;3.644;2023-03-24T06:13:36;100151.69;;;9.45;100.00
52949;BME280;38812;50.942;3.644;2023-03-24T06:16:02;100140.59;;;9.35;100.00
52949;BME280;38812;50.942;3.644;2023-03-24T06:18:28;100147.50;;;9.38;100.00
52949;BME280;38812;50.942;3.644;2023-03-24T06:20:55;100145.56;;;9.46;100.00
52949;BME280;38812;50.942;3.644;2023-03-24T06:23:24;100149.81;;;9.50;100.00
52949;BME280;38812;50.942;3.644;2023-03-24T06:25:52;100148.81;;;9.54;100.00
52949;BME280;38812;50.942;3.644;2023-03-24T06:28:18;100160.94;;;9.58;100.00
52949;BME280;38812;50.942;3.644;2023-03-24T06:30:44;100169.63;;;9.60;100.00
52949;BME280;38812;50.942;3.644;2023-03-24T06:33:11;100160.03;;;9.59;100.00
52949;BME280;38812;50.942;3.644;2023-03-24T06:35:37;100161.66;;;9.63;100.00
52949;BME280;38812;50.942;3.644;2023-03-24T06:38:03;100164.03;;;9.72;100.00
52949;BME280;38812;50.942;3.644;2023-03-24T06:40:29;100167.41;;;9.76;100.00
52949;BME280;38812;50.942;3.644;2023-03-24T06:42:55;100161.38;;;9.74;100.00
52949;BME280;38812;50.942;3.644;2023-03-24T06:45:21;100163.22;;;9.70;100.00
52949;BME280;38812;50.942;3.644;2023-03-24T06:47:46;100159.78;;;9.68;100.00
52949;BME280;38812;50.942;3.644;2023-03-24T06:50:12;100156.34;;;9.66;100.00
52949;BME280;38812;50.942;3.644;2023-03-24T06:52:38;100175.34;;;9.74;100.00
52949;BME280;38812;50.942;3.644;2023-03-24T06:55:04;100178.03;;;9.73;100.00
52949;BME280;38812;50.942;3.644;2023-03-24T06:57:30;100178.03;;;9.73;100.00
52949;BME280;38812;50.942;3.644;2023-03-24T06:59:55;100190.81;;;9.83;100.00
52949;BME280;38812;50.942;3.644;2023-03-24T07:02:21;100192.47;;;9.87;100.00
52949;BME280;38812;50.942;3.644;2023-03-24T07:04:47;100190.66;;;9.89;100.00
52949;BME280;38812;50.942;3.644;2023-03-24T07:07:13;100188.84;;;9.91;100.00
52949;BME280;38812;50.942;3.644;2023-03-24T07:09:38;100195.72;;;9.95;100.00
52949;BME280;38812;50.942;3.644;2023-03-24T07:12:05;100196.78;;;10.18;100.00
52949;BME280;38812;50.942;3.644;2023-03-24T07:14:30;100196.22;;;10.39;100.00
52949;BME280;38812;50.942;3.644;2023-03-24T07:16:56;100196.22;;;10.39;100.00
52949;BME280;38812;50.942;3.644;2023-03-24T07:19:21;100194.59;;;10.35;100.00
52949;BME280;38812;50.942;3.644;2023-03-24T07:21:47;100203.66;;;10.53;100.00
52949;BME280;38812;50.942;3.644;2023-03-24T07:24:17;100208.22;;;10.46;100.00
52949;BME280;38812;50.942;3.644;2023-03-24T07:26:43;100206.31;;;10.51;100.00
52949;BME280;38812;50.942;3.644;2023-03-24T07:29:10;100207.19;;;10.52;100.00
52949;BME280;38812;50.942;3.644;2023-03-24T07:31:36;100199.88;;;10.34;100.00
52949;BME280;38812;50.942;3.644;2023-03-24T07:34:06;100216.75;;;10.25;100.00
52949;BME280;38812;50.942;3.644;2023-03-24T07:36:31;100206.41;;;10.48;100.00
52949;BME280;38812;50.942;3.644;2023-03-24T07:38:56;100210.91;;;10.73;100.00
52949;BME280;38812;50.942;3.644;2023-03-24T07:41:22;100206.06;;;11.13;100.00
52949;BME280;38812;50.942;3.644;2023-03-24T07:43:49;100212.28;;;11.37;100.00
52949;BME280;38812;50.942;3.644;2023-03-24T07:46:14;100208.25;;;11.52;100.00
52949;BME280;38812;50.942;3.644;2023-03-24T07:48:41;100200.63;;;11.69;100.00
52949;BME280;38812;50.942;3.644;2023-03-24T07:51:06;100201.47;;;12.18;100.00
52949;BME280;38812;50.942;3.644;2023-03-24T07:53:32;100189.00;;;11.99;100.00
52949;BME280;38812;50.942;3.644;2023-03-24T07:55:58;100199.44;;;12.02;100.00
52949;BME280;38812;50.942;3.644;2023-03-24T07:58:23;100205.28;;;12.11;100.00
52949;BME280;38812;50.942;3.644;2023-03-24T08:00:49;100207.63;;;12.40;100.00
52949;BME280;38812;50.942;3.644;2023-03-24T08:03:15;100204.09;;;12.18;100.00
52949;BME280;38812;50.942;3.644;2023-03-24T08:05:41;100205.22;;;12.12;100.00
52949;BME280;38812;50.942;3.644;2023-03-24T08:08:07;100213.94;;;12.13;100.00
52949;BME280;38812;50.942;3.644;2023-03-24T08:10:33;100216.41;;;11.94;100.00
52949;BME280;38812;50.942;3.644;2023-03-24T08:12:59;100226.44;;;12.08;100.00
52949;BME280;38812;50.942;3.644;2023-03-24T08:15:25;100222.06;;;11.83;100.00
52949;BME280;38812;50.942;3.644;2023-03-24T08:17:51;100231.47;;;11.90;100.00
52949;BME280;38812;50.942;3.644;2023-03-24T08:20:20;100234.13;;;11.90;100.00
52949;BME280;38812;50.942;3.644;2023-03-24T08:22:48;100218.00;;;11.73;100.00
52949;BME280;38812;50.942;3.644;2023-03-24T08:25:15;100226.94;;;11.44;100.00
52949;BME280;38812;50.942;3.644;2023-03-24T08:27:41;100242.34;;;11.55;100.00
52949;BME280;38812;50.942;3.644;2023-03-24T08:30:13;100242.84;;;11.66;100.00
52949;BME280;38812;50.942;3.644;2023-03-24T08:32:48;100243.22;;;12.74;100.00
52949;BME280;38812;50.942;3.644;2023-03-24T08:35:15;100253.72;;;12.97;100.00
52949;BME280;38812;50.942;3.644;2023-03-24T08:37:41;100258.31;;;12.47;100.00
52949;BME280;38812;50.942;3.644;2023-03-24T08:40:13;100257.41;;;12.24;100.00
52949;BME280;38812;50.942;3.644;2023-03-24T08:42:42;100257.34;;;12.02;100.00
52949;BME280;38812;50.942;3.644;2023-03-24T08:45:10;100247.59;;;11.81;100.00
52949;BME280;38812;50.942;3.644;2023-03-24T08:47:37;100256.56;;;11.49;100.00
52949;BME280;38812;50.942;3.644;2023-03-24T08:50:04;100263.47;;;11.52;100.00
52949;BME280;38812;50.942;3.644;2023-03-24T08:52:31;100272.34;;;11.49;100.00
52949;BME280;38812;50.942;3.644;2023-03-24T08:54:56;100274.63;;;11.60;100.00
52949;BME280;38812;50.942;3.644;2023-03-24T08:57:22;100268.75;;;11.78;100.00
52949;BME280;38812;50.942;3.644;2023-03-24T08:59:47;100269.19;;;12.38;100.00
52949;BME280;38812;50.942;3.644;2023-03-24T09:02:13;100264.69;;;12.41;100.00
52949;BME280;38812;50.942;3.644;2023-03-24T09:04:38;100256.66;;;12.21;100.00
52949;BME280;38812;50.942;3.644;2023-03-24T09:07:04;100265.84;;;12.34;100.00
52949;BME280;38812;50.942;3.644;2023-03-24T09:09:31;100261.94;;;12.44;100.00
52949;BME280;38812;50.942;3.644;2023-03-24T09:11:57;100257.06;;;12.79;100.00
52949;BME280;38812;50.942;3.644;2023-03-24T09:14:23;100250.59;;;13.92;100.00
52949;BME280;38812;50.942;3.644;2023-03-24T09:16:48;100253.94;;;13.95;100.00
52949;BME280;38812;50.942;3.644;2023-03-24T09:19:15;100261.88;;;13.95;100.00
52949;BME280;38812;50.942;3.644;2023-03-24T09:21:43;100260.25;;;13.72;100.00
52949;BME280;38812;50.942;3.644;2023-03-24T09:24:08;100264.44;;;13.14;100.00
52949;BME280;38812;50.942;3.644;2023-03-24T09:26:34;100263.25;;;12.78;100.00
52949;BME280;38812;50.942;3.644;2023-03-24T09:28:59;100257.69;;;13.07;100.00
52949;BME280;38812;50.942;3.644;2023-03-24T09:31:25;100258.13;;;12.75;100.00
52949;BME280;38812;50.942;3.644;2023-03-24T09:33:50;100261.13;;;12.42;100.00
52949;BME280;38812;50.942;3.644;2023-03-24T09:36:16;100263.22;;;12.34;100.00
52949;BME280;38812;50.942;3.644;2023-03-24T09:38:42;100258.84;;;12.10;100.00
52949;BME280;38812;50.942;3.644;2023-03-24T09:41:28;100271.41;;;12.01;100.00
52949;BME280;38812;50.942;3.644;2023-03-24T09:46:42;100262.50;;;12.52;100.00
52949;BME280;38812;50.942;3.644;2023-03-24T09:49:14;100259.25;;;12.46;100.00
52949;BME280;38812;50.942;3.644;2023-03-24T09:51:43;100269.72;;;12.24;100.00
52949;BME280;38812;50.942;3.644;2023-03-24T09:54:25;100281.91;;;11.78;100.00
52949;BME280;38812;50.942;3.644;2023-03-24T09:56:53;100310.28;;;11.68;100.00
52949;BME280;38812;50.942;3.644;2023-03-24T09:59:28;100310.72;;;11.28;100.00
52949;BME280;38812;50.942;3.644;2023-03-24T10:01:56;100310.59;;;11.05;100.00
52949;BME280;38812;50.942;3.644;2023-03-24T10:04:25;100308.53;;;10.87;100.00
52949;BME280;38812;50.942;3.644;2023-03-24T10:10:35;100316.75;;;11.58;100.00
52949;BME280;38812;50.942;3.644;2023-03-24T10:13:07;100301.06;;;13.22;100.00
52949;BME280;38812;50.942;3.644;2023-03-24T10:15:51;100306.78;;;13.95;100.00
52949;BME280;38812;50.942;3.644;2023-03-24T10:18:42;100307.22;;;14.46;100.00
52949;BME280;38812;50.942;3.644;2023-03-24T10:21:13;100293.44;;;15.49;100.00
52949;BME280;38812;50.942;3.644;2023-03-24T10:23:53;100295.22;;;15.31;100.00
52949;BME280;38812;50.942;3.644;2023-03-24T10:31:55;100298.84;;;13.55;100.00
52949;BME280;38812;50.942;3.644;2023-03-24T10:34:26;100310.59;;;12.81;100.00
52949;BME280;38812;50.942;3.644;2023-03-24T10:36:54;100310.94;;;12.25;100.00
52949;BME280;38812;50.942;3.644;2023-03-24T10:39:21;100316.81;;;12.08;100.00
52949;BME280;38812;50.942;3.644;2023-03-24T10:41:47;100315.34;;;12.24;100.00
52949;BME280;38812;50.942;3.644;2023-03-24T10:44:14;100305.91;;;12.19;100.00
52949;BME280;38812;50.942;3.644;2023-03-24T10:46:45;100319.75;;;12.24;100.00
52949;BME280;38812;50.942;3.644;2023-03-24T10:51:37;100315.25;;;13.41;100.00
52949;BME280;38812;50.942;3.644;2023-03-24T10:54:21;100299.47;;;13.40;100.00
52949;BME280;38812;50.942;3.644;2023-03-24T10:57:00;100312.94;;;13.10;100.00
52949;BME280;38812;50.942;3.644;2023-03-24T10:59:35;100313.75;;;13.12;100.00
52949;BME280;38812;50.942;3.644;2023-03-24T11:02:18;100307.22;;;14.25;100.00
52949;BME280;38812;50.942;3.644;2023-03-24T11:04:57;100318.09;;;14.38;100.00
52949;BME280;38812;50.942;3.644;2023-03-24T11:07:28;100319.31;;;13.90;100.00
52949;BME280;38812;50.942;3.644;2023-03-24T11:10:03;100316.47;;;13.75;100.00
52949;BME280;38812;50.942;3.644;2023-03-24T11:12:31;100304.13;;;13.75;100.00
52949;BME280;38812;50.942;3.644;2023-03-24T11:15:21;100316.44;;;13.54;100.00
52949;BME280;38812;50.942;3.644;2023-03-24T11:18:24;100322.03;;;13.47;100.00
52949;BME280;38812;50.942;3.644;2023-03-24T11:20:57;100329.94;;;15.06;100.00
52949;BME280;38812;50.942;3.644;2023-03-24T11:23:32;100331.94;;;15.01;100.00
52949;BME280;38812;50.942;3.644;2023-03-24T11:28:35;100322.63;;;13.75;100.00
52949;BME280;38812;50.942;3.644;2023-03-24T11:31:09;100323.88;;;13.45;100.00
52949;BME280;38812;50.942;3.644;2023-03-24T11:33:44;100326.91;;;13.35;100.00
52949;BME280;38812;50.942;3.644;2023-03-24T11:39:39;100327.56;;;12.97;100.00
52949;BME280;38812;50.942;3.644;2023-03-24T11:44:48;100329.84;;;12.36;100.00
52949;BME280;38812;50.942;3.644;2023-03-24T11:47:35;100315.72;;;13.51;100.00
52949;BME280;38812;50.942;3.644;2023-03-24T11:55:20;100303.19;;;14.74;100.00
52949;BME280;38812;50.942;3.644;2023-03-24T12:00:41;100286.47;;;14.74;100.00
52949;BME280;38812;50.942;3.644;2023-03-24T12:14:08;100303.16;;;14.37;100.00
52949;BME280;38812;50.942;3.644;2023-03-24T12:29:58;100315.94;;;12.32;100.00
52949;BME280;38812;50.942;3.644;2023-03-24T12:35:19;100292.59;;;11.98;100.00
52949;BME280;38812;50.942;3.644;2023-03-24T12:45:58;100306.81;;;11.68;100.00
52949;BME280;38812;50.942;3.644;2023-03-24T12:48:51;100299.09;;;11.62;100.00
52949;BME280;38812;50.942;3.644;2023-03-24T12:51:38;100274.56;;;11.61;100.00
52949;BME280;38812;50.942;3.644;2023-03-24T12:57:05;100272.72;;;12.83;100.00
52949;BME280;38812;50.942;3.644;2023-03-24T12:59:54;100265.22;;;13.18;100.00
52949;BME280;38812;50.942;3.644;2023-03-24T13:02:41;100260.97;;;13.76;100.00
52949;BME280;38812;50.942;3.644;2023-03-24T13:05:21;100266.34;;;13.32;100.00
52949;BME280;38812;50.942;3.644;2023-03-24T13:07:51;100260.84;;;12.95;100.00
52949;BME280;38812;50.942;3.644;2023-03-24T13:10:25;100278.75;;;12.63;100.00
52949;BME280;38812;50.942;3.644;2023-03-24T13:12:58;100306.19;;;12.34;100.00
52949;BME280;38812;50.942;3.644;2023-03-24T13:18:47;100277.03;;;12.39;100.00
52949;BME280;38812;50.942;3.644;2023-03-24T13:21:17;100259.50;;;12.61;100.00
52949;BME280;38812;50.942;3.644;2023-03-24T13:28:56;100256.16;;;13.23;100.00
52949;BME280;38812;50.942;3.644;2023-03-24T13:31:24;100250.69;;;13.06;100.00
52949;BME280;38812;50.942;3.644;2023-03-24T13:33:52;100262.31;;;13.24;100.00
52949;BME280;38812;50.942;3.644;2023-03-24T13:36:44;100262.59;;;12.73;100.00
52949;BME280;38812;50.942;3.644;2023-03-24T13:39:16;100244.50;;;12.85;100.00
52949;BME280;38812;50.942;3.644;2023-03-24T13:41:51;100254.56;;;12.54;100.00
52949;BME280;38812;50.942;3.644;2023-03-24T13:44:39;100259.13;;;12.25;100.00
52949;BME280;38812;50.942;3.644;2023-03-24T13:47:10;100270.25;;;12.10;100.00
52949;BME280;38812;50.942;3.644;2023-03-24T13:49:37;100260.56;;;12.11;100.00
52949;BME280;38812;50.942;3.644;2023-03-24T13:52:52;100280.97;;;12.04;100.00
52949;BME280;38812;50.942;3.644;2023-03-24T13:55:20;100299.53;;;11.48;100.00
52949;BME280;38812;50.942;3.644;2023-03-24T13:57:59;100276.31;;;11.08;100.00
52949;BME280;38812;50.942;3.644;2023-03-24T14:00:26;100272.72;;;11.39;100.00
52949;BME280;38812;50.942;3.644;2023-03-24T14:15:25;100241.09;;;12.38;100.00
52949;BME280;38812;50.942;3.644;2023-03-24T14:17:56;100237.25;;;12.47;100.00
52949;BME280;38812;50.942;3.644;2023-03-24T14:20:43;100237.53;;;12.16;100.00
52949;BME280;38812;50.942;3.644;2023-03-24T14:23:45;100242.75;;;12.17;100.00
52949;BME280;38812;50.942;3.644;2023-03-24T14:26:29;100225.47;;;12.33;100.00
52949;BME280;38812;50.942;3.644;2023-03-24T14:28:58;100236.06;;;12.55;100.00
52949;BME280;38812;50.942;3.644;2023-03-24T14:31:28;100238.06;;;12.70;100.00
52949;BME280;38812;50.942;3.644;2023-03-24T14:41:50;100228.81;;;13.04;100.00
52949;BME280;38812;50.942;3.644;2023-03-24T14:47:21;100234.25;;;13.21;100.00
52949;BME280;38812;50.942;3.644;2023-03-24T14:49:52;100243.97;;;13.21;100.00
52949;BME280;38812;50.942;3.644;2023-03-24T14:54:51;100239.97;;;13.32;100.00
52949;BME280;38812;50.942;3.644;2023-03-24T14:57:21;100227.44;;;13.37;100.00
52949;BME280;38812;50.942;3.644;2023-03-24T15:00:05;100240.41;;;13.64;100.00
52949;BME280;38812;50.942;3.644;2023-03-24T15:02:57;100232.06;;;13.53;100.00
52949;BME280;38812;50.942;3.644;2023-03-24T15:05:28;100234.41;;;13.18;100.00
52949;BME280;38812;50.942;3.644;2023-03-24T15:11:01;100230.88;;;13.19;100.00
52949;BME280;38812;50.942;3.644;2023-03-24T15:13:33;100219.00;;;13.29;100.00
52949;BME280;38812;50.942;3.644;2023-03-24T15:16:02;100208.50;;;13.48;100.00
52949;BME280;38812;50.942;3.644;2023-03-24T15:18:29;100201.25;;;13.53;100.00
52949;BME280;38812;50.942;3.644;2023-03-24T15:20:54;100197.94;;;13.48;100.00
52949;BME280;38812;50.942;3.644;2023-03-24T15:23:25;100199.06;;;13.43;100.00
52949;BME280;38812;50.942;3.644;2023-03-24T15:25:52;100198.94;;;13.46;100.00
52949;BME280;38812;50.942;3.644;2023-03-24T15:28:28;100195.31;;;13.28;100.00
52949;BME280;38812;50.942;3.644;2023-03-24T15:30:56;100199.59;;;13.30;100.00
52949;BME280;38812;50.942;3.644;2023-03-24T15:33:24;100187.94;;;13.36;100.00
52949;BME280;38812;50.942;3.644;2023-03-24T15:35:58;100194.00;;;13.58;100.00
52949;BME280;38812;50.942;3.644;2023-03-24T15:38:32;100186.22;;;13.55;100.00